CheckWX is a tool to help pilots better visualize weather data.  It is not intended as a substitute for an official pre-flight weather briefing.

05:11:33 UTC

CYWH METAR
Victoria Harbour Seaplane Base
Victoria, Canada
Current

12 mins ago

CYWH 240500Z 09007KT 050V120 15SM FEW015 SCT038 OVC082 06/02 A3003 RMK SC2SC2AC4 LAST STFD OBS/NEXT 241400 UTC SLP172
Observed
Feb-24 @ 05:00 UTC
Wind
  • 090° at 7 KTS
Visibility
15 SM
Flight Rules
VFR
Cloud Levels
  • Few at 1,500' AGL
  • Scattered at 3,800' AGL
  • Overcast at 8,200' AGL
Temperature
C / 43°F
Dewpoint
C / 36°F
Humidity
76%
Altimeter
30.03" Hg
Pressure
1017.2 hPa
Previous

1 hour ago

CYWH 240400Z 10010G16KT 15SM SCT016 BKN035 BKN072 OVC240 06/03 A3003 RMK SC3SC2AC2CI1 SLP171
Observed
Feb-24 @ 04:00 UTC
Wind
  • 100° at 10 KTS
  • Gusting to 16 KTS
Visibility
15 SM
Flight Rules
VFR
Cloud Levels
  • Scattered at 1,600' AGL
  • Broken at 3,500' AGL
  • Broken at 7,200' AGL
  • Overcast at 24,000' AGL
Temperature
C / 43°F
Dewpoint
C / 37°F
Humidity
81%
Altimeter
30.03" Hg
Pressure
1017.1 hPa
Previous

2 hours ago

CYWH 240300Z 35005KT 15SM SCT018 BKN035 OVC075 05/02 A3003 RMK SC3SC2AC3 SLP172
Observed
Feb-24 @ 03:00 UTC
Wind
  • 350° at 5 KTS
Visibility
15 SM
Flight Rules
VFR
Cloud Levels
  • Scattered at 1,800' AGL
  • Broken at 3,500' AGL
  • Overcast at 7,500' AGL
Temperature
C / 41°F
Dewpoint
C / 36°F
Humidity
81%
Altimeter
30.03" Hg
Pressure
1017.2 hPa